Flight Track Log - Related Links

Times and Time Zones

All times are in EDT time to prevent confusion due to time zone crossing. See the SWA2150 flight status page for this flight to view local times or setup timezone preferences in your user account.


Time Position Orientation Groundspeed Altitude Reporting Facility
EDT Latitude Longitude Course Direction KTS MPH feet Rate Location/Type
Fri 09:03:21 PM 39.1333 -76.6667 303° West 201 231 2,200  Level Potomac TRACON
Fri 09:04:15 PM 39.1667 -76.7333 303° West 233 268 4,800 2,450 Climbing Potomac TRACON
Fri 09:05:21 PM 39.1833 -76.8167 284° West 266 306 7,100 2,667 Climbing Potomac TRACON
Fri 09:07:15 PM 39.2114 -77.0058 281° West 302 348 12,800 2,811 Climbing Washington Center
Fri 09:08:16 PM 39.2036 -77.1369 266° West 335 386 15,300 2,579 Climbing Washington Center
Fri 09:09:16 PM 39.1231 -77.2317 222° Southwest 347 399 18,000 2,471 Climbing Washington Center
Fri 09:10:15 PM 39.0133 -77.3253 214° Southwest 380 437 20,200 2,420 Climbing Washington Center
Fri 09:11:15 PM 38.9019 -77.4003 208° Southwest 425 489 22,800 2,281 Climbing Washington Center
Fri 09:12:16 PM 38.7942 -77.4908 213° Southwest 452 520 24,800 1,967 Climbing Washington Center
Fri 09:13:17 PM 38.6864 -77.5836 214° Southwest 468 539 26,800 1,160 Climbing Washington Center
Fri 09:14:15 PM 38.5742 -77.6817 214° Southwest 478 550 27,100 1,119 Climbing Washington Center
Fri 09:15:15 PM 38.4600 -77.7764 213° Southwest 484 557 29,000 1,636 Climbing Washington Center
Fri 09:16:16 PM 38.3475 -77.8739 214° Southwest 495 570 30,400 1,289 Climbing Washington Center
Fri 09:17:16 PM 38.2247 -77.9758 213° Southwest 506 582 31,600 1,488 Climbing Washington Center
Fri 09:18:17 PM 38.1036 -78.0803 214° Southwest 522 601 33,400 1,210 Climbing Washington Center
Fri 09:19:15 PM 37.9975 -78.1661 213° Southwest 522 601 34,000 303 Climbing Washington Center
Fri 09:20:16 PM 37.8889 -78.2756 219° Southwest 509 586 34,000 694 Level Washington Center
Fri 09:21:16 PM 37.7781 -78.3819 217° Southwest 509 586 35,400 1,488 Climbing Washington Center
Fri 09:22:17 PM 37.6564 -78.4956 216° Southwest 509 586 37,000 1,190 Climbing Washington Center
Fri 09:23:17 PM 37.5453 -78.6014 217° Southwest 509 586 37,800 508 Climbing Washington Center
Fri 09:24:15 PM 37.4319 -78.7067 216° Southwest 509 586 38,000 102 Climbing Washington Center
Fri 09:25:15 PM 37.3064 -78.8008 211° Southwest 514 592 38,000  Level Washington Center
Fri 09:26:16 PM 37.1939 -78.8744 208° Southwest 520 598 38,000  Level Washington Center
Fri 09:27:16 PM 37.0706 -78.9603 209° Southwest 515 593 38,000  Level Washington Center
Fri 09:28:17 PM 36.9450 -79.0431 208° Southwest 515 593 38,000  Level Washington Center
Fri 09:29:15 PM 36.8217 -79.1258 208° Southwest 515 593 38,000  Level Washington Center
Fri 09:30:16 PM 36.6981 -79.2108 209° Southwest 515 593 38,000  Level Washington Center
Fri 09:31:55 PM 36.4900 -79.3494 208° Southwest 503 579 38,000  Level Atlanta Center
Fri 09:32:55 PM 36.3661 -79.4314 208° Southwest 503 579 38,000  Level Atlanta Center
Fri 09:33:55 PM 36.2419 -79.5156 209° Southwest 508 585 38,000  Level Atlanta Center
Fri 09:34:55 PM 36.1156 -79.5972 208° Southwest 508 585 38,000  Level Atlanta Center
Fri 09:35:55 PM 35.9769 -79.6894 208° Southwest 508 585 38,000  Level Atlanta Center
Fri 09:36:55 PM 35.8506 -79.7731 208° Southwest 508 585 38,000  Level Atlanta Center
Fri 09:37:55 PM 35.7264 -79.8564 209° Southwest 508 585 38,000  Level Atlanta Center
Fri 09:38:55 PM 35.6122 -79.9364 210° Southwest 514 592 38,000  Level Atlanta Center
Fri 09:39:55 PM 35.4733 -80.0247 207° Southwest 514 592 38,000  Level Atlanta Center
Fri 09:41:29 PM 35.2750 -80.1519 208° Southwest 498 573 38,000  Level Jacksonville Center
Fri 09:42:29 PM 35.1475 -80.2322 207° Southwest 505 581 38,000  Level Jacksonville Center
Fri 09:43:29 PM 35.0242 -80.3122 208° Southwest 505 581 38,000  Level Jacksonville Center
Fri 09:44:29 PM 34.8986 -80.3944 208° Southwest 511 588 38,000  Level Jacksonville Center
Fri 09:45:29 PM 34.7936 -80.4708 211° Southwest 510 587 38,000  Level Jacksonville Center
Fri 09:46:29 PM 34.6594 -80.5375 202° Southwest 504 580 38,000  Level Jacksonville Center
Fri 09:47:29 PM 34.5292 -80.6042 203° Southwest 509 586 38,000  Level Jacksonville Center
Fri 09:48:29 PM 34.3989 -80.6706 203° Southwest 514 592 38,000  Level Jacksonville Center
Fri 09:49:29 PM 34.2667 -80.7367 202° Southwest 512 589 38,000  Level Jacksonville Center
Fri 09:50:29 PM 34.1361 -80.8028 203° Southwest 512 589 38,000  Level Jacksonville Center
Fri 09:51:29 PM 34.0017 -80.8686 202° Southwest 512 589 38,000  Level Jacksonville Center
Fri 09:52:29 PM 33.8714 -80.9367 203° Southwest 512 589 38,000  Level Jacksonville Center
Fri 09:53:29 PM 33.7367 -81.0019 202° Southwest 518 596 38,000  Level Jacksonville Center
Fri 09:54:29 PM 33.6042 -81.0697 203° Southwest 518 596 38,000  Level Jacksonville Center
Fri 09:55:29 PM 33.4736 -81.1347 203° Southwest 518 596 38,000  Level Jacksonville Center
Fri 09:56:29 PM 33.3389 -81.1994 202° Southwest 513 590 38,000  Level Jacksonville Center
Fri 09:57:29 PM 33.2081 -81.2664 203° Southwest 513 590 38,000  Level Jacksonville Center
Fri 09:58:29 PM 33.0775 -81.3308 202° Southwest 513 590 38,000  Level Jacksonville Center
Fri 09:59:29 PM 32.9403 -81.3828 198° South 513 590 38,000  Level Jacksonville Center
Fri 10:00:29 PM 32.8031 -81.4219 193° South 513 590 38,000  Level Jacksonville Center
Fri 10:01:29 PM 32.6511 -81.4689 195° South 506 582 38,000  Level Jacksonville Center
Fri 10:02:28 PM 32.5264 -81.5053 194° South 513 590 38,000  Level Jacksonville Center
Fri 10:03:29 PM 32.3767 -81.5519 195° South 508 585 38,000  Level Jacksonville Center
Fri 10:04:29 PM 32.2372 -81.5933 194° South 508 585 38,000  Level Jacksonville Center
Fri 10:05:29 PM 32.1142 -81.6294 194° South 508 585 38,000  Level Jacksonville Center
Fri 10:06:29 PM 31.9622 -81.6731 194° South 509 586 38,000  Level Jacksonville Center
Fri 10:07:29 PM 31.8375 -81.7114 195° South 514 592 38,000  Level Jacksonville Center
Fri 10:08:28 PM 31.6875 -81.7547 194° South 508 585 38,000  Level Jacksonville Center
Fri 10:09:29 PM 31.5481 -81.7931 193° South 518 596 38,000  Level Jacksonville Center
Fri 10:10:28 PM 31.4250 -81.8311 195° South 512 589 38,000  Level Jacksonville Center
Fri 10:11:29 PM 31.2897 -81.8714 194° South 507 583 38,000  Level Jacksonville Center
Fri 10:12:29 PM 31.1522 -81.9142 195° South 507 583 38,000  Level Jacksonville Center
Fri 10:13:29 PM 31.0147 -81.9519 193° South 507 583 38,000  Level Jacksonville Center
Fri 10:14:29 PM 30.8772 -81.9944 195° South 507 583 38,000  Level Jacksonville Center
Fri 10:15:29 PM 30.7417 -82.0322 193° South 507 583 38,000  Level Jacksonville Center
Fri 10:16:29 PM 30.5897 -82.0744 193° South 507 583 38,000  Level Jacksonville Center
Fri 10:17:29 PM 30.4686 -82.1069 193° South 507 583 38,000  Level Jacksonville Center
Fri 10:18:29 PM 30.3292 -82.1442 193° South 507 583 38,000  Level Jacksonville Center
Fri 10:19:29 PM 30.1914 -82.1836 194° South 507 583 38,000  Level Jacksonville Center
Fri 10:20:29 PM 30.0539 -82.2256 195° South 507 583 38,000 -650 Level Jacksonville Center
Fri 10:21:29 PM 29.9039 -82.2719 195° South 512 589 36,700 -2,100 Descending Jacksonville Center
Fri 10:22:29 PM 29.7683 -82.3111 194° South 512 589 33,800 -3,000 Descending Jacksonville Center
Fri 10:23:29 PM 29.6306 -82.3431 191° South 512 589 30,700 -3,050 Descending Jacksonville Center
Fri 10:24:29 PM 29.4950 -82.3486 182° South 506 582 27,700 -2,400 Descending Jacksonville Center
Fri 10:25:29 PM 29.3614 -82.3350 175° South 494 568 25,900 -2,250 Descending Jacksonville Center
Fri 10:26:29 PM 29.2339 -82.3192 174° South 489 563 23,200 -2,600 Descending Jacksonville Center
Fri 10:27:29 PM 29.1128 -82.3031 173° South 470 541 20,700 -2,400 Descending Jacksonville Center
Fri 10:28:29 PM 28.9917 -82.2897 174° South 455 524 18,400 -2,400 Descending Jacksonville Center
Fri 10:29:29 PM 28.8747 -82.2736 173° South 440 506 15,900 -1,934 Descending Jacksonville Center
Fri 10:31:32 PM 28.6500 -82.2667 178° South 383 441 12,500 -1,443 Descending Tampa TRACON
Fri 10:32:32 PM 28.5333 -82.2667 180° South 399 459 11,500 -750 Descending Tampa TRACON
Fri 10:33:32 PM 28.4333 -82.3000 196° South 391 450 11,000 -250 Descending Tampa TRACON
Fri 10:34:32 PM 28.3333 -82.3167 188° South 336 387 11,000 -150 Level Tampa TRACON
Fri 10:35:32 PM 28.2500 -82.3500 199° South 285 328 10,700 -1,000 Descending Tampa TRACON
Fri 10:36:32 PM 28.1833 -82.3667 192° South 270 311 9,000 -1,750 Descending Tampa TRACON
Fri 10:37:32 PM 28.1167 -82.3833 192° South 265 305 7,200 -1,800 Descending Tampa TRACON
Fri 10:38:32 PM 28.0333 -82.4000 190° South 264 304 5,400 -1,050 Descending Tampa TRACON
Fri 10:39:32 PM 27.9667 -82.4167 192° South 236 272 5,100 -150 Descending Tampa TRACON
Fri 10:40:32 PM 27.9000 -82.4167 180° South 239 275 5,100 -50 Level Tampa TRACON
Fri 10:41:32 PM 27.8333 -82.4167 180° South 237 273 5,000 -550 Descending Tampa TRACON
Fri 10:42:32 PM 27.7667 -82.4333 192° South 247 284 4,000 -496 Descending Tampa TRACON
Fri 10:43:33 PM 27.7667 -82.5000 270° West 245 282 4,000 -250 Level Tampa TRACON
Fri 10:44:32 PM 27.8167 -82.5333 329° Northwest 181 208 3,500 -800 Descending Tampa TRACON
Fri 10:45:33 PM 27.8667 -82.5333 360° North 181 208 2,400 -1,041 Descending Tampa TRACON
Fri 10:46:33 PM 27.9167 -82.5333 360° North 166 191 1,400 -950 Descending Tampa TRACON
Fri 10:47:33 PM 27.9500 -82.5333 360° North 128 147 500 -900 Descending Tampa TRACON

Login

Don't have an account? Register now (free) for customized features, flight alerts, and more!